sensor_id;sensor_type;location;lat;lon;timestamp;P1;durP1;ratioP1;P2;durP2;ratioP2
77220;SDS011;66217;50.004;8.266;2023-06-14T00:01:17;6.80;;;4.22;;
77220;SDS011;66217;50.004;8.266;2023-06-14T00:03:45;7.80;;;3.92;;
77220;SDS011;66217;50.004;8.266;2023-06-14T00:06:12;5.68;;;3.90;;
77220;SDS011;66217;50.004;8.266;2023-06-14T00:08:38;11.82;;;4.47;;
77220;SDS011;66217;50.004;8.266;2023-06-14T00:11:05;8.82;;;4.72;;
77220;SDS011;66217;50.004;8.266;2023-06-14T00:13:30;7.20;;;4.57;;
77220;SDS011;66217;50.004;8.266;2023-06-14T00:15:56;10.02;;;4.10;;
77220;SDS011;66217;50.004;8.266;2023-06-14T00:18:21;7.13;;;3.97;;
77220;SDS011;66217;50.004;8.266;2023-06-14T00:20:49;6.15;;;3.70;;
77220;SDS011;66217;50.004;8.266;2023-06-14T00:23:15;7.43;;;3.60;;
77220;SDS011;66217;50.004;8.266;2023-06-14T00:25:40;5.47;;;3.92;;
77220;SDS011;66217;50.004;8.266;2023-06-14T00:28:06;6.07;;;4.03;;
77220;SDS011;66217;50.004;8.266;2023-06-14T00:30:31;9.27;;;3.50;;
77220;SDS011;66217;50.004;8.266;2023-06-14T00:32:57;7.85;;;3.70;;
77220;SDS011;66217;50.004;8.266;2023-06-14T00:35:24;10.00;;;4.28;;
77220;SDS011;66217;50.004;8.266;2023-06-14T00:37:50;7.00;;;4.30;;
77220;SDS011;66217;50.004;8.266;2023-06-14T00:40:15;6.80;;;3.80;;
77220;SDS011;66217;50.004;8.266;2023-06-14T00:42:41;6.38;;;4.10;;
77220;SDS011;66217;50.004;8.266;2023-06-14T00:45:07;10.18;;;3.63;;
77220;SDS011;66217;50.004;8.266;2023-06-14T00:47:32;5.53;;;3.95;;
77220;SDS011;66217;50.004;8.266;2023-06-14T00:49:58;7.43;;;3.83;;
77220;SDS011;66217;50.004;8.266;2023-06-14T00:52:25;7.93;;;3.65;;
77220;SDS011;66217;50.004;8.266;2023-06-14T00:54:51;9.65;;;3.55;;
77220;SDS011;66217;50.004;8.266;2023-06-14T00:57:16;10.77;;;4.15;;
77220;SDS011;66217;50.004;8.266;2023-06-14T00:59:43;7.88;;;3.60;;
77220;SDS011;66217;50.004;8.266;2023-06-14T01:02:10;9.57;;;4.10;;
77220;SDS011;66217;50.004;8.266;2023-06-14T01:04:36;6.30;;;3.83;;
77220;SDS011;66217;50.004;8.266;2023-06-14T01:09:48;7.47;;;4.20;;
77220;SDS011;66217;50.004;8.266;2023-06-14T01:13:15;8.77;;;3.40;;
77220;SDS011;66217;50.004;8.266;2023-06-14T01:15:23;7.65;;;4.00;;
77220;SDS011;66217;50.004;8.266;2023-06-14T01:17:49;6.40;;;3.28;;
77220;SDS011;66217;50.004;8.266;2023-06-14T01:20:16;7.28;;;3.67;;
77220;SDS011;66217;50.004;8.266;2023-06-14T01:22:55;6.63;;;3.90;;
77220;SDS011;66217;50.004;8.266;2023-06-14T01:25:21;11.00;;;3.88;;
77220;SDS011;66217;50.004;8.266;2023-06-14T01:30:35;8.80;;;3.65;;
77220;SDS011;66217;50.004;8.266;2023-06-14T01:33:02;7.32;;;3.67;;
77220;SDS011;66217;50.004;8.266;2023-06-14T01:35:30;7.60;;;3.50;;
77220;SDS011;66217;50.004;8.266;2023-06-14T01:37:56;7.05;;;3.60;;
77220;SDS011;66217;50.004;8.266;2023-06-14T01:40:22;5.80;;;3.50;;
77220;SDS011;66217;50.004;8.266;2023-06-14T01:42:49;6.45;;;3.90;;
77220;SDS011;66217;50.004;8.266;2023-06-14T01:45:15;11.02;;;3.85;;
77220;SDS011;66217;50.004;8.266;2023-06-14T01:47:42;10.48;;;3.53;;
77220;SDS011;66217;50.004;8.266;2023-06-14T01:50:09;5.25;;;3.10;;
77220;SDS011;66217;50.004;8.266;2023-06-14T01:52:36;6.97;;;3.67;;
77220;SDS011;66217;50.004;8.266;2023-06-14T01:55:02;6.72;;;3.40;;
77220;SDS011;66217;50.004;8.266;2023-06-14T01:57:27;4.80;;;3.35;;
77220;SDS011;66217;50.004;8.266;2023-06-14T01:59:53;6.82;;;3.70;;
77220;SDS011;66217;50.004;8.266;2023-06-14T02:02:18;5.82;;;3.55;;
77220;SDS011;66217;50.004;8.266;2023-06-14T02:04:44;7.25;;;3.40;;
77220;SDS011;66217;50.004;8.266;2023-06-14T02:07:12;6.20;;;3.60;;
77220;SDS011;66217;50.004;8.266;2023-06-14T02:09:40;6.25;;;3.67;;
77220;SDS011;66217;50.004;8.266;2023-06-14T02:12:06;6.35;;;3.47;;
77220;SDS011;66217;50.004;8.266;2023-06-14T02:14:32;10.65;;;3.47;;
77220;SDS011;66217;50.004;8.266;2023-06-14T02:16:58;4.50;;;3.35;;
77220;SDS011;66217;50.004;8.266;2023-06-14T02:19:26;5.45;;;3.30;;
77220;SDS011;66217;50.004;8.266;2023-06-14T02:21:52;7.35;;;3.42;;
77220;SDS011;66217;50.004;8.266;2023-06-14T02:24:17;5.68;;;3.40;;
77220;SDS011;66217;50.004;8.266;2023-06-14T02:26:43;6.85;;;3.38;;
77220;SDS011;66217;50.004;8.266;2023-06-14T02:31:40;11.20;;;3.42;;
77220;SDS011;66217;50.004;8.266;2023-06-14T02:34:06;6.40;;;3.60;;
77220;SDS011;66217;50.004;8.266;2023-06-14T02:36:34;7.70;;;3.35;;
77220;SDS011;66217;50.004;8.266;2023-06-14T02:39:00;6.03;;;3.25;;
77220;SDS011;66217;50.004;8.266;2023-06-14T02:41:26;9.13;;;3.40;;
77220;SDS011;66217;50.004;8.266;2023-06-14T02:43:52;8.35;;;3.55;;
77220;SDS011;66217;50.004;8.266;2023-06-14T02:46:18;5.50;;;3.15;;
77220;SDS011;66217;50.004;8.266;2023-06-14T02:48:44;7.63;;;3.08;;
77220;SDS011;66217;50.004;8.266;2023-06-14T02:51:10;6.30;;;3.45;;
77220;SDS011;66217;50.004;8.266;2023-06-14T02:53:36;6.57;;;3.83;;
77220;SDS011;66217;50.004;8.266;2023-06-14T02:56:02;6.65;;;3.47;;
77220;SDS011;66217;50.004;8.266;2023-06-14T02:58:29;5.40;;;3.45;;
77220;SDS011;66217;50.004;8.266;2023-06-14T03:00:55;5.57;;;3.70;;
77220;SDS011;66217;50.004;8.266;2023-06-14T03:03:21;12.15;;;3.30;;
77220;SDS011;66217;50.004;8.266;2023-06-14T03:05:52;6.28;;;3.22;;
77220;SDS011;66217;50.004;8.266;2023-06-14T03:08:22;7.63;;;3.55;;
77220;SDS011;66217;50.004;8.266;2023-06-14T03:13:18;5.85;;;3.33;;
77220;SDS011;66217;50.004;8.266;2023-06-14T03:15:48;6.35;;;3.65;;
77220;SDS011;66217;50.004;8.266;2023-06-14T03:18:16;8.55;;;3.47;;
77220;SDS011;66217;50.004;8.266;2023-06-14T03:20:42;10.80;;;4.28;;
77220;SDS011;66217;50.004;8.266;2023-06-14T03:23:08;7.25;;;3.28;;
77220;SDS011;66217;50.004;8.266;2023-06-14T03:25:34;8.50;;;4.03;;
77220;SDS011;66217;50.004;8.266;2023-06-14T03:28:01;5.75;;;3.72;;
77220;SDS011;66217;50.004;8.266;2023-06-14T03:30:29;5.20;;;3.42;;
77220;SDS011;66217;50.004;8.266;2023-06-14T03:32:55;5.32;;;3.30;;
77220;SDS011;66217;50.004;8.266;2023-06-14T03:35:23;6.47;;;3.47;;
77220;SDS011;66217;50.004;8.266;2023-06-14T03:37:49;5.03;;;3.05;;
77220;SDS011;66217;50.004;8.266;2023-06-14T03:40:16;7.13;;;3.53;;
77220;SDS011;66217;50.004;8.266;2023-06-14T03:42:45;6.13;;;3.28;;
77220;SDS011;66217;50.004;8.266;2023-06-14T03:45:11;6.75;;;3.30;;
77220;SDS011;66217;50.004;8.266;2023-06-14T03:47:37;11.30;;;3.83;;
77220;SDS011;66217;50.004;8.266;2023-06-14T03:50:02;9.95;;;4.00;;
77220;SDS011;66217;50.004;8.266;2023-06-14T03:52:29;7.60;;;3.67;;
77220;SDS011;66217;50.004;8.266;2023-06-14T03:54:54;5.22;;;3.35;;
77220;SDS011;66217;50.004;8.266;2023-06-14T03:57:22;7.20;;;3.60;;
77220;SDS011;66217;50.004;8.266;2023-06-14T03:59:49;6.47;;;3.63;;
77220;SDS011;66217;50.004;8.266;2023-06-14T04:02:15;7.70;;;3.53;;
77220;SDS011;66217;50.004;8.266;2023-06-14T04:04:42;8.02;;;3.40;;
77220;SDS011;66217;50.004;8.266;2023-06-14T04:07:11;5.30;;;3.90;;
77220;SDS011;66217;50.004;8.266;2023-06-14T04:09:38;4.93;;;3.15;;
77220;SDS011;66217;50.004;8.266;2023-06-14T04:12:04;6.47;;;3.25;;
77220;SDS011;66217;50.004;8.266;2023-06-14T04:14:31;11.02;;;3.83;;
77220;SDS011;66217;50.004;8.266;2023-06-14T04:17:00;4.97;;;3.45;;
77220;SDS011;66217;50.004;8.266;2023-06-14T04:19:26;5.43;;;3.33;;
77220;SDS011;66217;50.004;8.266;2023-06-14T04:21:52;4.65;;;3.33;;
77220;SDS011;66217;50.004;8.266;2023-06-14T04:24:18;10.95;;;3.80;;
77220;SDS011;66217;50.004;8.266;2023-06-14T04:26:46;10.50;;;3.60;;
77220;SDS011;66217;50.004;8.266;2023-06-14T04:29:16;6.28;;;3.55;;
77220;SDS011;66217;50.004;8.266;2023-06-14T04:31:45;6.25;;;3.30;;
77220;SDS011;66217;50.004;8.266;2023-06-14T04:34:11;5.63;;;3.47;;
77220;SDS011;66217;50.004;8.266;2023-06-14T04:36:50;7.05;;;3.55;;
77220;SDS011;66217;50.004;8.266;2023-06-14T04:39:19;9.93;;;3.80;;
77220;SDS011;66217;50.004;8.266;2023-06-14T04:41:46;7.75;;;3.40;;
77220;SDS011;66217;50.004;8.266;2023-06-14T04:44:13;7.60;;;3.60;;
77220;SDS011;66217;50.004;8.266;2023-06-14T04:49:15;9.80;;;3.58;;
77220;SDS011;66217;50.004;8.266;2023-06-14T04:51:41;10.25;;;3.33;;
77220;SDS011;66217;50.004;8.266;2023-06-14T04:54:08;9.88;;;3.83;;
77220;SDS011;66217;50.004;8.266;2023-06-14T04:56:40;8.63;;;3.97;;
77220;SDS011;66217;50.004;8.266;2023-06-14T04:59:07;6.55;;;3.60;;
77220;SDS011;66217;50.004;8.266;2023-06-14T05:01:34;5.93;;;3.63;;
77220;SDS011;66217;50.004;8.266;2023-06-14T05:04:00;8.88;;;3.60;;
77220;SDS011;66217;50.004;8.266;2023-06-14T05:06:26;13.52;;;3.78;;
77220;SDS011;66217;50.004;8.266;2023-06-14T05:08:53;10.25;;;3.40;;
77220;SDS011;66217;50.004;8.266;2023-06-14T05:11:18;7.38;;;4.28;;
77220;SDS011;66217;50.004;8.266;2023-06-14T05:13:45;13.82;;;3.40;;
77220;SDS011;66217;50.004;8.266;2023-06-14T05:16:12;8.88;;;3.72;;
77220;SDS011;66217;50.004;8.266;2023-06-14T05:18:37;7.72;;;3.75;;
77220;SDS011;66217;50.004;8.266;2023-06-14T05:21:03;5.90;;;3.75;;
77220;SDS011;66217;50.004;8.266;2023-06-14T05:23:32;5.45;;;3.58;;
77220;SDS011;66217;50.004;8.266;2023-06-14T05:25:57;7.47;;;3.72;;
77220;SDS011;66217;50.004;8.266;2023-06-14T05:28:23;5.85;;;3.38;;
77220;SDS011;66217;50.004;8.266;2023-06-14T05:30:49;9.18;;;3.53;;
77220;SDS011;66217;50.004;8.266;2023-06-14T05:33:14;14.60;;;4.90;;
77220;SDS011;66217;50.004;8.266;2023-06-14T05:35:39;10.15;;;4.63;;
77220;SDS011;66217;50.004;8.266;2023-06-14T05:38:05;12.43;;;4.50;;
77220;SDS011;66217;50.004;8.266;2023-06-14T05:40:32;10.98;;;3.45;;
77220;SDS011;66217;50.004;8.266;2023-06-14T05:42:58;5.65;;;3.35;;
77220;SDS011;66217;50.004;8.266;2023-06-14T05:45:23;12.70;;;3.38;;
77220;SDS011;66217;50.004;8.266;2023-06-14T05:47:49;9.25;;;3.38;;
77220;SDS011;66217;50.004;8.266;2023-06-14T05:50:15;11.32;;;3.42;;
77220;SDS011;66217;50.004;8.266;2023-06-14T05:52:41;9.40;;;3.65;;
77220;SDS011;66217;50.004;8.266;2023-06-14T05:55:06;5.35;;;3.15;;
77220;SDS011;66217;50.004;8.266;2023-06-14T05:57:32;6.55;;;3.20;;
77220;SDS011;66217;50.004;8.266;2023-06-14T05:59:57;8.38;;;3.45;;
77220;SDS011;66217;50.004;8.266;2023-06-14T06:02:23;4.82;;;3.08;;
77220;SDS011;66217;50.004;8.266;2023-06-14T06:04:49;5.70;;;2.95;;
77220;SDS011;66217;50.004;8.266;2023-06-14T06:07:15;7.05;;;2.90;;
77220;SDS011;66217;50.004;8.266;2023-06-14T06:09:41;6.38;;;3.17;;
77220;SDS011;66217;50.004;8.266;2023-06-14T06:12:06;10.43;;;3.42;;
77220;SDS011;66217;50.004;8.266;2023-06-14T06:14:32;9.32;;;3.17;;
77220;SDS011;66217;50.004;8.266;2023-06-14T06:16:58;7.72;;;3.22;;
77220;SDS011;66217;50.004;8.266;2023-06-14T06:19:23;10.55;;;3.40;;
77220;SDS011;66217;50.004;8.266;2023-06-14T06:21:49;7.07;;;3.30;;
77220;SDS011;66217;50.004;8.266;2023-06-14T06:24:14;13.00;;;3.40;;
77220;SDS011;66217;50.004;8.266;2023-06-14T06:26:40;7.25;;;3.25;;
77220;SDS011;66217;50.004;8.266;2023-06-14T06:29:05;8.15;;;3.45;;
77220;SDS011;66217;50.004;8.266;2023-06-14T06:31:31;8.13;;;3.25;;
77220;SDS011;66217;50.004;8.266;2023-06-14T06:33:56;9.95;;;3.53;;
77220;SDS011;66217;50.004;8.266;2023-06-14T06:36:22;6.88;;;4.22;;
77220;SDS011;66217;50.004;8.266;2023-06-14T06:38:48;5.65;;;3.25;;
77220;SDS011;66217;50.004;8.266;2023-06-14T06:41:15;5.60;;;3.00;;
77220;SDS011;66217;50.004;8.266;2023-06-14T06:43:41;9.27;;;3.60;;
77220;SDS011;66217;50.004;8.266;2023-06-14T06:46:08;5.50;;;3.22;;
77220;SDS011;66217;50.004;8.266;2023-06-14T06:48:33;6.50;;;3.15;;
77220;SDS011;66217;50.004;8.266;2023-06-14T06:50:59;9.10;;;3.45;;
77220;SDS011;66217;50.004;8.266;2023-06-14T06:53:24;10.90;;;3.47;;
77220;SDS011;66217;50.004;8.266;2023-06-14T06:55:50;5.70;;;3.15;;
77220;SDS011;66217;50.004;8.266;2023-06-14T06:58:15;4.72;;;3.40;;
77220;SDS011;66217;50.004;8.266;2023-06-14T07:00:41;8.60;;;3.72;;
77220;SDS011;66217;50.004;8.266;2023-06-14T07:03:06;5.05;;;3.35;;
77220;SDS011;66217;50.004;8.266;2023-06-14T07:05:32;7.75;;;3.55;;
77220;SDS011;66217;50.004;8.266;2023-06-14T07:07:58;4.45;;;2.85;;
77220;SDS011;66217;50.004;8.266;2023-06-14T07:10:23;7.63;;;3.47;;
77220;SDS011;66217;50.004;8.266;2023-06-14T07:12:52;8.32;;;3.40;;
77220;SDS011;66217;50.004;8.266;2023-06-14T07:15:17;4.78;;;3.65;;
77220;SDS011;66217;50.004;8.266;2023-06-14T07:17:42;5.03;;;3.30;;
77220;SDS011;66217;50.004;8.266;2023-06-14T07:20:08;6.53;;;3.03;;
77220;SDS011;66217;50.004;8.266;2023-06-14T07:22:37;8.30;;;3.50;;
77220;SDS011;66217;50.004;8.266;2023-06-14T07:25:07;5.68;;;2.88;;
77220;SDS011;66217;50.004;8.266;2023-06-14T07:27:33;5.95;;;3.08;;
77220;SDS011;66217;50.004;8.266;2023-06-14T07:29:59;12.63;;;3.33;;
77220;SDS011;66217;50.004;8.266;2023-06-14T07:32:24;5.45;;;3.10;;
77220;SDS011;66217;50.004;8.266;2023-06-14T07:34:50;10.25;;;3.03;;
77220;SDS011;66217;50.004;8.266;2023-06-14T07:37:15;5.25;;;3.08;;
77220;SDS011;66217;50.004;8.266;2023-06-14T07:39:40;5.97;;;3.13;;
77220;SDS011;66217;50.004;8.266;2023-06-14T07:42:06;5.60;;;3.00;;
77220;SDS011;66217;50.004;8.266;2023-06-14T07:44:32;8.57;;;2.90;;
77220;SDS011;66217;50.004;8.266;2023-06-14T07:46:57;8.38;;;3.33;;
77220;SDS011;66217;50.004;8.266;2023-06-14T07:49:25;11.07;;;3.00;;
77220;SDS011;66217;50.004;8.266;2023-06-14T07:51:50;7.38;;;2.85;;
77220;SDS011;66217;50.004;8.266;2023-06-14T07:54:16;5.70;;;2.92;;
77220;SDS011;66217;50.004;8.266;2023-06-14T07:56:42;6.43;;;2.90;;
77220;SDS011;66217;50.004;8.266;2023-06-14T07:59:07;6.57;;;2.90;;
77220;SDS011;66217;50.004;8.266;2023-06-14T08:01:35;6.13;;;2.55;;
77220;SDS011;66217;50.004;8.266;2023-06-14T08:04:01;4.63;;;2.65;;
77220;SDS011;66217;50.004;8.266;2023-06-14T08:06:26;4.45;;;2.47;;
77220;SDS011;66217;50.004;8.266;2023-06-14T08:08:52;5.65;;;2.50;;
77220;SDS011;66217;50.004;8.266;2023-06-14T08:11:17;5.40;;;2.58;;
77220;SDS011;66217;50.004;8.266;2023-06-14T08:13:43;5.68;;;2.97;;
77220;SDS011;66217;50.004;8.266;2023-06-14T08:16:10;4.35;;;2.80;;
77220;SDS011;66217;50.004;8.266;2023-06-14T08:18:35;7.65;;;2.88;;
77220;SDS011;66217;50.004;8.266;2023-06-14T08:21:01;4.50;;;2.22;;
77220;SDS011;66217;50.004;8.266;2023-06-14T08:23:28;4.70;;;2.63;;
77220;SDS011;66217;50.004;8.266;2023-06-14T08:25:55;3.50;;;2.60;;
77220;SDS011;66217;50.004;8.266;2023-06-14T08:28:21;8.43;;;2.88;;
77220;SDS011;66217;50.004;8.266;2023-06-14T08:30:46;4.85;;;2.47;;
77220;SDS011;66217;50.004;8.266;2023-06-14T08:33:12;3.17;;;2.47;;
77220;SDS011;66217;50.004;8.266;2023-06-14T08:35:37;4.72;;;2.58;;
77220;SDS011;66217;50.004;8.266;2023-06-14T08:38:04;5.30;;;2.58;;
77220;SDS011;66217;50.004;8.266;2023-06-14T08:40:30;7.82;;;2.60;;
77220;SDS011;66217;50.004;8.266;2023-06-14T08:42:56;8.02;;;2.95;;
77220;SDS011;66217;50.004;8.266;2023-06-14T08:45:22;3.67;;;2.50;;
77220;SDS011;66217;50.004;8.266;2023-06-14T08:47:48;6.88;;;2.45;;
77220;SDS011;66217;50.004;8.266;2023-06-14T08:50:23;4.78;;;2.20;;
77220;SDS011;66217;50.004;8.266;2023-06-14T08:52:53;5.32;;;2.40;;
77220;SDS011;66217;50.004;8.266;2023-06-14T08:55:19;7.28;;;2.63;;
77220;SDS011;66217;50.004;8.266;2023-06-14T08:57:46;4.18;;;2.25;;
77220;SDS011;66217;50.004;8.266;2023-06-14T09:00:13;3.55;;;2.05;;
77220;SDS011;66217;50.004;8.266;2023-06-14T09:02:39;4.68;;;2.50;;
77220;SDS011;66217;50.004;8.266;2023-06-14T09:05:11;5.50;;;2.05;;
77220;SDS011;66217;50.004;8.266;2023-06-14T09:07:41;8.90;;;2.15;;
77220;SDS011;66217;50.004;8.266;2023-06-14T09:10:07;3.53;;;2.08;;
77220;SDS011;66217;50.004;8.266;2023-06-14T09:12:37;3.95;;;1.92;;
77220;SDS011;66217;50.004;8.266;2023-06-14T09:15:03;6.35;;;2.05;;
77220;SDS011;66217;50.004;8.266;2023-06-14T09:17:37;3.67;;;2.00;;
77220;SDS011;66217;50.004;8.266;2023-06-14T09:20:07;5.63;;;2.10;;
77220;SDS011;66217;50.004;8.266;2023-06-14T09:22:43;7.35;;;2.20;;
77220;SDS011;66217;50.004;8.266;2023-06-14T09:25:09;4.65;;;2.08;;
77220;SDS011;66217;50.004;8.266;2023-06-14T09:27:35;5.35;;;2.20;;
77220;SDS011;66217;50.004;8.266;2023-06-14T09:30:05;4.38;;;2.42;;
77220;SDS011;66217;50.004;8.266;2023-06-14T09:32:36;6.22;;;2.10;;
77220;SDS011;66217;50.004;8.266;2023-06-14T09:35:02;7.13;;;2.13;;
77220;SDS011;66217;50.004;8.266;2023-06-14T09:37:29;2.67;;;1.85;;
77220;SDS011;66217;50.004;8.266;2023-06-14T09:39:55;3.90;;;1.95;;
77220;SDS011;66217;50.004;8.266;2023-06-14T09:42:21;6.10;;;2.03;;
77220;SDS011;66217;50.004;8.266;2023-06-14T09:44:51;4.30;;;1.88;;
77220;SDS011;66217;50.004;8.266;2023-06-14T09:47:17;3.15;;;2.15;;
77220;SDS011;66217;50.004;8.266;2023-06-14T09:49:43;3.88;;;2.08;;
77220;SDS011;66217;50.004;8.266;2023-06-14T09:52:10;4.78;;;2.25;;
77220;SDS011;66217;50.004;8.266;2023-06-14T09:54:40;4.95;;;1.98;;
77220;SDS011;66217;50.004;8.266;2023-06-14T09:57:09;7.15;;;1.95;;
77220;SDS011;66217;50.004;8.266;2023-06-14T09:59:36;3.70;;;2.20;;
77220;SDS011;66217;50.004;8.266;2023-06-14T10:02:07;6.15;;;2.50;;
77220;SDS011;66217;50.004;8.266;2023-06-14T10:04:41;2.90;;;1.95;;
77220;SDS011;66217;50.004;8.266;2023-06-14T10:07:13;3.70;;;2.10;;
77220;SDS011;66217;50.004;8.266;2023-06-14T10:09:45;7.40;;;2.30;;
77220;SDS011;66217;50.004;8.266;2023-06-14T10:12:16;2.80;;;2.00;;
77220;SDS011;66217;50.004;8.266;2023-06-14T10:14:49;2.72;;;1.95;;
77220;SDS011;66217;50.004;8.266;2023-06-14T10:17:37;4.63;;;2.40;;
77220;SDS011;66217;50.004;8.266;2023-06-14T10:20:15;5.05;;;2.15;;
77220;SDS011;66217;50.004;8.266;2023-06-14T10:23:13;3.13;;;2.13;;
77220;SDS011;66217;50.004;8.266;2023-06-14T10:25:41;3.20;;;2.15;;
77220;SDS011;66217;50.004;8.266;2023-06-14T10:31:02;5.38;;;2.50;;
77220;SDS011;66217;50.004;8.266;2023-06-14T10:33:32;3.03;;;1.75;;
77220;SDS011;66217;50.004;8.266;2023-06-14T10:39:04;4.40;;;1.92;;
77220;SDS011;66217;50.004;8.266;2023-06-14T10:41:30;4.70;;;1.83;;
77220;SDS011;66217;50.004;8.266;2023-06-14T10:46:48;3.47;;;2.05;;
77220;SDS011;66217;50.004;8.266;2023-06-14T10:49:18;5.30;;;1.80;;
77220;SDS011;66217;50.004;8.266;2023-06-14T10:51:45;3.50;;;1.90;;
77220;SDS011;66217;50.004;8.266;2023-06-14T10:54:14;3.97;;;2.00;;
77220;SDS011;66217;50.004;8.266;2023-06-14T10:56:50;3.03;;;1.65;;
77220;SDS011;66217;50.004;8.266;2023-06-14T10:59:17;3.75;;;1.92;;
77220;SDS011;66217;50.004;8.266;2023-06-14T11:02:06;3.33;;;1.70;;
77220;SDS011;66217;50.004;8.266;2023-06-14T11:04:52;3.80;;;1.95;;
77220;SDS011;66217;50.004;8.266;2023-06-14T11:07:37;4.10;;;2.00;;
77220;SDS011;66217;50.004;8.266;2023-06-14T11:13:01;3.30;;;1.88;;
77220;SDS011;66217;50.004;8.266;2023-06-14T11:15:31;3.53;;;1.83;;
77220;SDS011;66217;50.004;8.266;2023-06-14T11:17:58;5.90;;;2.08;;
77220;SDS011;66217;50.004;8.266;2023-06-14T11:20:26;4.20;;;2.40;;
77220;SDS011;66217;50.004;8.266;2023-06-14T11:22:52;3.92;;;1.95;;
77220;SDS011;66217;50.004;8.266;2023-06-14T11:25:18;3.17;;;2.05;;
77220;SDS011;66217;50.004;8.266;2023-06-14T11:27:44;4.13;;;1.92;;
77220;SDS011;66217;50.004;8.266;2023-06-14T11:30:10;6.10;;;2.30;;
77220;SDS011;66217;50.004;8.266;2023-06-14T11:32:37;4.95;;;2.00;;
77220;SDS011;66217;50.004;8.266;2023-06-14T11:35:03;3.83;;;1.85;;
77220;SDS011;66217;50.004;8.266;2023-06-14T11:37:30;2.65;;;2.15;;
77220;SDS011;66217;50.004;8.266;2023-06-14T11:39:56;5.72;;;2.00;;
77220;SDS011;66217;50.004;8.266;2023-06-14T11:42:22;2.97;;;2.13;;
77220;SDS011;66217;50.004;8.266;2023-06-14T11:44:49;3.05;;;2.03;;
77220;SDS011;66217;50.004;8.266;2023-06-14T11:47:14;4.10;;;2.10;;
77220;SDS011;66217;50.004;8.266;2023-06-14T11:49:40;4.75;;;2.17;;
77220;SDS011;66217;50.004;8.266;2023-06-14T11:52:07;3.60;;;1.90;;
77220;SDS011;66217;50.004;8.266;2023-06-14T11:54:32;3.15;;;2.00;;
77220;SDS011;66217;50.004;8.266;2023-06-14T11:56:58;5.68;;;2.35;;
77220;SDS011;66217;50.004;8.266;2023-06-14T11:59:24;5.25;;;2.20;;
77220;SDS011;66217;50.004;8.266;2023-06-14T12:01:50;5.05;;;2.20;;
77220;SDS011;66217;50.004;8.266;2023-06-14T12:04:23;4.38;;;2.55;;
77220;SDS011;66217;50.004;8.266;2023-06-14T12:06:50;4.28;;;2.45;;
77220;SDS011;66217;50.004;8.266;2023-06-14T12:09:18;4.63;;;2.17;;
77220;SDS011;66217;50.004;8.266;2023-06-14T12:11:44;4.78;;;2.50;;
77220;SDS011;66217;50.004;8.266;2023-06-14T12:14:11;3.55;;;2.10;;
77220;SDS011;66217;50.004;8.266;2023-06-14T12:16:39;6.00;;;2.30;;
77220;SDS011;66217;50.004;8.266;2023-06-14T12:19:11;3.85;;;2.40;;
77220;SDS011;66217;50.004;8.266;2023-06-14T12:21:40;5.82;;;2.58;;
77220;SDS011;66217;50.004;8.266;2023-06-14T12:24:06;2.88;;;2.25;;
77220;SDS011;66217;50.004;8.266;2023-06-14T12:26:32;3.95;;;2.38;;
77220;SDS011;66217;50.004;8.266;2023-06-14T12:28:58;4.15;;;2.25;;
77220;SDS011;66217;50.004;8.266;2023-06-14T12:31:24;4.38;;;2.50;;
77220;SDS011;66217;50.004;8.266;2023-06-14T12:33:51;3.20;;;2.45;;
77220;SDS011;66217;50.004;8.266;2023-06-14T12:36:17;7.97;;;2.70;;
77220;SDS011;66217;50.004;8.266;2023-06-14T12:38:42;3.92;;;2.35;;
77220;SDS011;66217;50.004;8.266;2023-06-14T12:41:08;5.50;;;2.25;;
77220;SDS011;66217;50.004;8.266;2023-06-14T12:43:33;3.58;;;2.50;;
77220;SDS011;66217;50.004;8.266;2023-06-14T12:45:59;4.15;;;2.20;;
77220;SDS011;66217;50.004;8.266;2023-06-14T12:48:25;2.38;;;2.03;;
77220;SDS011;66217;50.004;8.266;2023-06-14T12:50:52;3.75;;;2.30;;
77220;SDS011;66217;50.004;8.266;2023-06-14T12:53:18;5.47;;;2.65;;
77220;SDS011;66217;50.004;8.266;2023-06-14T12:55:43;5.43;;;2.38;;
77220;SDS011;66217;50.004;8.266;2023-06-14T12:58:09;4.13;;;2.35;;
77220;SDS011;66217;50.004;8.266;2023-06-14T13:00:37;3.38;;;2.20;;
77220;SDS011;66217;50.004;8.266;2023-06-14T13:03:03;6.80;;;2.55;;
77220;SDS011;66217;50.004;8.266;2023-06-14T13:05:28;3.00;;;2.45;;
77220;SDS011;66217;50.004;8.266;2023-06-14T13:07:56;6.95;;;2.25;;
77220;SDS011;66217;50.004;8.266;2023-06-14T13:10:21;3.42;;;2.30;;
77220;SDS011;66217;50.004;8.266;2023-06-14T13:12:47;6.05;;;2.42;;
77220;SDS011;66217;50.004;8.266;2023-06-14T13:15:12;5.57;;;2.42;;
77220;SDS011;66217;50.004;8.266;2023-06-14T13:17:38;3.50;;;2.13;;
77220;SDS011;66217;50.004;8.266;2023-06-14T13:20:06;4.68;;;2.40;;
77220;SDS011;66217;50.004;8.266;2023-06-14T13:22:36;9.38;;;2.33;;
77220;SDS011;66217;50.004;8.266;2023-06-14T13:25:02;3.47;;;2.28;;
77220;SDS011;66217;50.004;8.266;2023-06-14T13:27:28;5.50;;;2.35;;
77220;SDS011;66217;50.004;8.266;2023-06-14T13:29:55;6.50;;;2.35;;
77220;SDS011;66217;50.004;8.266;2023-06-14T13:32:21;8.57;;;2.20;;
77220;SDS011;66217;50.004;8.266;2023-06-14T13:34:47;2.50;;;2.13;;
77220;SDS011;66217;50.004;8.266;2023-06-14T13:37:13;6.00;;;2.40;;
77220;SDS011;66217;50.004;8.266;2023-06-14T13:39:38;3.85;;;2.63;;
77220;SDS011;66217;50.004;8.266;2023-06-14T13:42:04;3.83;;;2.10;;
77220;SDS011;66217;50.004;8.266;2023-06-14T13:44:29;4.15;;;2.50;;
77220;SDS011;66217;50.004;8.266;2023-06-14T13:46:55;5.57;;;2.58;;
77220;SDS011;66217;50.004;8.266;2023-06-14T13:49:20;6.53;;;2.35;;
77220;SDS011;66217;50.004;8.266;2023-06-14T13:51:46;9.73;;;2.58;;
77220;SDS011;66217;50.004;8.266;2023-06-14T13:54:14;3.70;;;2.80;;
77220;SDS011;66217;50.004;8.266;2023-06-14T13:56:40;4.68;;;2.60;;
77220;SDS011;66217;50.004;8.266;2023-06-14T13:59:06;5.30;;;2.60;;
77220;SDS011;66217;50.004;8.266;2023-06-14T14:01:31;5.68;;;2.53;;
77220;SDS011;66217;50.004;8.266;2023-06-14T14:03:57;5.47;;;2.83;;
77220;SDS011;66217;50.004;8.266;2023-06-14T14:06:23;6.90;;;2.75;;
77220;SDS011;66217;50.004;8.266;2023-06-14T14:08:49;3.92;;;2.80;;
77220;SDS011;66217;50.004;8.266;2023-06-14T14:11:14;3.67;;;2.40;;
77220;SDS011;66217;50.004;8.266;2023-06-14T14:13:41;4.18;;;2.60;;
77220;SDS011;66217;50.004;8.266;2023-06-14T14:16:07;4.90;;;2.40;;
77220;SDS011;66217;50.004;8.266;2023-06-14T14:18:33;6.43;;;2.67;;
77220;SDS011;66217;50.004;8.266;2023-06-14T14:20:58;7.22;;;2.80;;
77220;SDS011;66217;50.004;8.266;2023-06-14T14:23:27;7.00;;;2.80;;
77220;SDS011;66217;50.004;8.266;2023-06-14T14:25:53;4.78;;;2.42;;
77220;SDS011;66217;50.004;8.266;2023-06-14T14:28:18;5.20;;;3.17;;
77220;SDS011;66217;50.004;8.266;2023-06-14T14:30:45;2.88;;;2.42;;
77220;SDS011;66217;50.004;8.266;2023-06-14T14:33:12;4.78;;;2.60;;
77220;SDS011;66217;50.004;8.266;2023-06-14T14:38:08;5.13;;;2.50;;
77220;SDS011;66217;50.004;8.266;2023-06-14T14:40:33;6.60;;;2.60;;
77220;SDS011;66217;50.004;8.266;2023-06-14T14:42:59;5.75;;;2.58;;
77220;SDS011;66217;50.004;8.266;2023-06-14T14:45:25;9.25;;;2.50;;
77220;SDS011;66217;50.004;8.266;2023-06-14T14:47:50;6.90;;;2.53;;
77220;SDS011;66217;50.004;8.266;2023-06-14T14:50:16;4.07;;;2.50;;
77220;SDS011;66217;50.004;8.266;2023-06-14T14:52:41;4.80;;;2.50;;
77220;SDS011;66217;50.004;8.266;2023-06-14T14:55:07;3.13;;;2.40;;
77220;SDS011;66217;50.004;8.266;2023-06-14T14:57:33;3.05;;;2.30;;
77220;SDS011;66217;50.004;8.266;2023-06-14T14:59:58;3.28;;;2.30;;
77220;SDS011;66217;50.004;8.266;2023-06-14T15:02:24;6.95;;;2.40;;
77220;SDS011;66217;50.004;8.266;2023-06-14T15:04:49;3.45;;;2.40;;
77220;SDS011;66217;50.004;8.266;2023-06-14T15:07:15;3.17;;;2.47;;
77220;SDS011;66217;50.004;8.266;2023-06-14T15:09:40;3.90;;;2.70;;
77220;SDS011;66217;50.004;8.266;2023-06-14T15:12:06;4.97;;;2.40;;